sensor_id;sensor_type;location;lat;lon;timestamp;temperature;humidity
70151;DHT22;57517;43.562;19.540;2023-03-03T00:01:07;179.70;2252.80
70151;DHT22;57517;43.562;19.540;2023-03-03T00:03:33;179.80;2252.80
70151;DHT22;57517;43.562;19.540;2023-03-03T00:05:59;179.90;2252.80
70151;DHT22;57517;43.562;19.540;2023-03-03T00:08:25;179.90;2252.80
70151;DHT22;57517;43.562;19.540;2023-03-03T00:10:51;180.00;2252.80
70151;DHT22;57517;43.562;19.540;2023-03-03T00:13:26;179.90;2252.80
70151;DHT22;57517;43.562;19.540;2023-03-03T00:15:53;179.80;2252.80
70151;DHT22;57517;43.562;19.540;2023-03-03T00:18:44;179.60;2252.80
70151;DHT22;57517;43.562;19.540;2023-03-03T00:21:31;179.60;2252.80
70151;DHT22;57517;43.562;19.540;2023-03-03T00:26:35;179.50;2252.80
70151;DHT22;57517;43.562;19.540;2023-03-03T00:34:42;179.90;2252.80
70151;DHT22;57517;43.562;19.540;2023-03-03T00:37:34;179.90;2252.80
70151;DHT22;57517;43.562;19.540;2023-03-03T00:40:36;180.10;2252.80
70151;DHT22;57517;43.562;19.540;2023-03-03T00:43:56;180.10;2252.80
70151;DHT22;57517;43.562;19.540;2023-03-03T00:45:57;180.00;2252.80
70151;DHT22;57517;43.562;19.540;2023-03-03T00:50:56;180.00;2252.80
70151;DHT22;57517;43.562;19.540;2023-03-03T00:53:23;180.00;2252.80
70151;DHT22;57517;43.562;19.540;2023-03-03T00:55:51;179.90;2252.80
70151;DHT22;57517;43.562;19.540;2023-03-03T00:58:17;180.00;2252.80
70151;DHT22;57517;43.562;19.540;2023-03-03T01:00:47;179.90;2252.80
70151;DHT22;57517;43.562;19.540;2023-03-03T01:03:19;179.90;2252.80
70151;DHT22;57517;43.562;19.540;2023-03-03T01:05:47;179.70;2252.80
70151;DHT22;57517;43.562;19.540;2023-03-03T01:08:13;179.90;2252.80
70151;DHT22;57517;43.562;19.540;2023-03-03T01:10:47;179.80;2252.80
70151;DHT22;57517;43.562;19.540;2023-03-03T01:13:18;179.80;2252.80
70151;DHT22;57517;43.562;19.540;2023-03-03T01:15:45;179.80;2252.80
70151;DHT22;57517;43.562;19.540;2023-03-03T01:18:11;179.60;2252.80
70151;DHT22;57517;43.562;19.540;2023-03-03T01:20:37;179.40;2252.80
70151;DHT22;57517;43.562;19.540;2023-03-03T01:23:03;179.50;2252.80
70151;DHT22;57517;43.562;19.540;2023-03-03T01:25:29;179.60;2252.80
70151;DHT22;57517;43.562;19.540;2023-03-03T01:27:55;179.60;2252.80
70151;DHT22;57517;43.562;19.540;2023-03-03T01:30:21;179.50;2252.80
70151;DHT22;57517;43.562;19.540;2023-03-03T01:32:47;179.50;2252.80
70151;DHT22;57517;43.562;19.540;2023-03-03T01:35:13;179.30;2252.80
70151;DHT22;57517;43.562;19.540;2023-03-03T01:37:39;179.50;2252.80
70151;DHT22;57517;43.562;19.540;2023-03-03T01:40:06;179.40;2252.80
70151;DHT22;57517;43.562;19.540;2023-03-03T01:42:33;179.30;2252.80
70151;DHT22;57517;43.562;19.540;2023-03-03T01:45:18;179.30;2252.80
70151;DHT22;57517;43.562;19.540;2023-03-03T01:47:54;179.30;2252.80
70151;DHT22;57517;43.562;19.540;2023-03-03T01:50:51;179.20;2252.80
70151;DHT22;57517;43.562;19.540;2023-03-03T01:53:22;179.20;2252.80
70151;DHT22;57517;43.562;19.540;2023-03-03T01:55:52;154.50;2252.80
70151;DHT22;57517;43.562;19.540;2023-03-03T01:58:28;179.20;2252.80
70151;DHT22;57517;43.562;19.540;2023-03-03T02:01:06;179.20;2252.80
70151;DHT22;57517;43.562;19.540;2023-03-03T02:03:33;179.40;2252.80
70151;DHT22;57517;43.562;19.540;2023-03-03T02:06:03;179.40;2252.80
70151;DHT22;57517;43.562;19.540;2023-03-03T02:08:38;179.20;2252.80
70151;DHT22;57517;43.562;19.540;2023-03-03T02:11:07;154.50;2252.80
70151;DHT22;57517;43.562;19.540;2023-03-03T02:13:33;179.20;2252.80
70151;DHT22;57517;43.562;19.540;2023-03-03T02:15:59;179.30;2252.80
70151;DHT22;57517;43.562;19.540;2023-03-03T02:18:25;179.30;2252.80
70151;DHT22;57517;43.562;19.540;2023-03-03T02:21:36;179.20;2252.80
70151;DHT22;57517;43.562;19.540;2023-03-03T02:26:33;179.40;2252.80
70151;DHT22;57517;43.562;19.540;2023-03-03T02:29:00;179.40;2252.80
70151;DHT22;57517;43.562;19.540;2023-03-03T02:31:27;179.40;2252.80
70151;DHT22;57517;43.562;19.540;2023-03-03T02:33:54;179.30;2252.80
70151;DHT22;57517;43.562;19.540;2023-03-03T02:36:26;179.40;2252.80
70151;DHT22;57517;43.562;19.540;2023-03-03T02:39:19;179.20;2252.80
70151;DHT22;57517;43.562;19.540;2023-03-03T02:44:18;179.40;2252.80
70151;DHT22;57517;43.562;19.540;2023-03-03T02:46:46;179.60;2252.80
70151;DHT22;57517;43.562;19.540;2023-03-03T02:49:15;179.60;2252.80
70151;DHT22;57517;43.562;19.540;2023-03-03T02:51:41;179.70;2252.80
70151;DHT22;57517;43.562;19.540;2023-03-03T02:54:08;179.80;2252.80
70151;DHT22;57517;43.562;19.540;2023-03-03T02:56:34;179.80;2252.80
70151;DHT22;57517;43.562;19.540;2023-03-03T02:59:00;179.80;2252.80
70151;DHT22;57517;43.562;19.540;2023-03-03T03:01:27;179.80;2252.80
70151;DHT22;57517;43.562;19.540;2023-03-03T03:03:54;179.80;2252.80
70151;DHT22;57517;43.562;19.540;2023-03-03T03:06:19;179.80;2252.80
70151;DHT22;57517;43.562;19.540;2023-03-03T03:08:45;179.70;2252.80
70151;DHT22;57517;43.562;19.540;2023-03-03T03:11:11;179.70;2252.80
70151;DHT22;57517;43.562;19.540;2023-03-03T03:13:36;179.80;2252.80
70151;DHT22;57517;43.562;19.540;2023-03-03T03:16:02;179.80;2252.80
70151;DHT22;57517;43.562;19.540;2023-03-03T03:18:28;179.80;2252.80
70151;DHT22;57517;43.562;19.540;2023-03-03T03:20:54;179.90;2252.80
70151;DHT22;57517;43.562;19.540;2023-03-03T03:23:19;179.90;2252.80
70151;DHT22;57517;43.562;19.540;2023-03-03T03:25:47;179.90;2252.80
70151;DHT22;57517;43.562;19.540;2023-03-03T03:28:16;179.80;2252.80
70151;DHT22;57517;43.562;19.540;2023-03-03T03:30:43;179.80;2252.80
70151;DHT22;57517;43.562;19.540;2023-03-03T03:33:10;179.90;2252.80
70151;DHT22;57517;43.562;19.540;2023-03-03T03:35:36;179.70;2252.80
70151;DHT22;57517;43.562;19.540;2023-03-03T03:38:02;179.80;2252.80
70151;DHT22;57517;43.562;19.540;2023-03-03T03:40:28;179.80;2252.80
70151;DHT22;57517;43.562;19.540;2023-03-03T03:42:54;179.80;2252.80
70151;DHT22;57517;43.562;19.540;2023-03-03T03:45:21;179.60;2252.80
70151;DHT22;57517;43.562;19.540;2023-03-03T03:47:46;179.50;2252.80
70151;DHT22;57517;43.562;19.540;2023-03-03T03:50:12;179.50;2252.80
70151;DHT22;57517;43.562;19.540;2023-03-03T03:52:38;179.30;2252.80
70151;DHT22;57517;43.562;19.540;2023-03-03T03:55:04;179.40;2252.80
70151;DHT22;57517;43.562;19.540;2023-03-03T03:57:30;179.40;2252.80
70151;DHT22;57517;43.562;19.540;2023-03-03T03:59:56;179.40;2252.80
70151;DHT22;57517;43.562;19.540;2023-03-03T04:02:22;179.40;2252.80
70151;DHT22;57517;43.562;19.540;2023-03-03T04:04:48;179.50;2252.80
70151;DHT22;57517;43.562;19.540;2023-03-03T04:07:13;179.50;2252.80
70151;DHT22;57517;43.562;19.540;2023-03-03T04:09:39;179.50;2252.80
70151;DHT22;57517;43.562;19.540;2023-03-03T04:12:05;179.50;2252.80
70151;DHT22;57517;43.562;19.540;2023-03-03T04:14:31;179.50;2252.80
70151;DHT22;57517;43.562;19.540;2023-03-03T04:16:57;179.50;2252.80
70151;DHT22;57517;43.562;19.540;2023-03-03T04:19:22;179.50;2252.80
70151;DHT22;57517;43.562;19.540;2023-03-03T04:21:48;179.50;2252.80
70151;DHT22;57517;43.562;19.540;2023-03-03T04:24:14;179.60;2252.80
70151;DHT22;57517;43.562;19.540;2023-03-03T04:26:40;179.60;2252.80
70151;DHT22;57517;43.562;19.540;2023-03-03T04:29:06;179.70;2252.80
70151;DHT22;57517;43.562;19.540;2023-03-03T04:31:32;179.80;2252.80
70151;DHT22;57517;43.562;19.540;2023-03-03T04:33:57;179.80;2252.80
70151;DHT22;57517;43.562;19.540;2023-03-03T04:36:23;179.90;2252.80
70151;DHT22;57517;43.562;19.540;2023-03-03T04:38:49;179.80;2252.80
70151;DHT22;57517;43.562;19.540;2023-03-03T04:41:15;179.70;2252.80
70151;DHT22;57517;43.562;19.540;2023-03-03T04:43:41;179.50;2252.80
70151;DHT22;57517;43.562;19.540;2023-03-03T04:46:07;179.40;2252.80
70151;DHT22;57517;43.562;19.540;2023-03-03T04:48:32;154.50;2252.80
70151;DHT22;57517;43.562;19.540;2023-03-03T04:50:58;154.40;2252.80
70151;DHT22;57517;43.562;19.540;2023-03-03T04:53:24;154.40;2252.80
70151;DHT22;57517;43.562;19.540;2023-03-03T04:55:53;154.30;2252.80
70151;DHT22;57517;43.562;19.540;2023-03-03T04:58:19;154.40;2252.80
70151;DHT22;57517;43.562;19.540;2023-03-03T05:00:46;154.30;2252.80
70151;DHT22;57517;43.562;19.540;2023-03-03T05:03:12;154.30;2252.80
70151;DHT22;57517;43.562;19.540;2023-03-03T05:05:39;154.40;2252.80
70151;DHT22;57517;43.562;19.540;2023-03-03T05:08:05;179.20;2252.80
70151;DHT22;57517;43.562;19.540;2023-03-03T05:10:31;179.30;2252.80
70151;DHT22;57517;43.562;19.540;2023-03-03T05:12:56;179.30;2252.80
70151;DHT22;57517;43.562;19.540;2023-03-03T05:15:22;179.20;2252.80
70151;DHT22;57517;43.562;19.540;2023-03-03T05:17:48;179.30;2252.80
70151;DHT22;57517;43.562;19.540;2023-03-03T05:20:14;179.40;2252.80
70151;DHT22;57517;43.562;19.540;2023-03-03T05:22:40;179.50;2252.80
70151;DHT22;57517;43.562;19.540;2023-03-03T05:25:06;179.40;2252.80
70151;DHT22;57517;43.562;19.540;2023-03-03T05:27:32;179.50;2252.80
70151;DHT22;57517;43.562;19.540;2023-03-03T05:29:57;179.50;2252.80
70151;DHT22;57517;43.562;19.540;2023-03-03T05:32:23;179.50;2252.80
70151;DHT22;57517;43.562;19.540;2023-03-03T05:34:49;179.60;2252.80
70151;DHT22;57517;43.562;19.540;2023-03-03T05:37:16;179.70;2252.80
70151;DHT22;57517;43.562;19.540;2023-03-03T05:39:42;179.80;2252.80
70151;DHT22;57517;43.562;19.540;2023-03-03T05:42:11;179.80;2252.80
70151;DHT22;57517;43.562;19.540;2023-03-03T05:44:37;179.80;2252.80
70151;DHT22;57517;43.562;19.540;2023-03-03T05:47:03;179.90;2252.80
70151;DHT22;57517;43.562;19.540;2023-03-03T05:49:29;179.80;2252.80
70151;DHT22;57517;43.562;19.540;2023-03-03T05:51:54;179.60;2252.80
70151;DHT22;57517;43.562;19.540;2023-03-03T05:54:20;179.60;2252.80
70151;DHT22;57517;43.562;19.540;2023-03-03T05:56:46;179.40;2252.80
70151;DHT22;57517;43.562;19.540;2023-03-03T05:59:12;179.30;2252.80
70151;DHT22;57517;43.562;19.540;2023-03-03T06:01:37;179.20;2252.80
70151;DHT22;57517;43.562;19.540;2023-03-03T06:04:03;179.20;2252.80
70151;DHT22;57517;43.562;19.540;2023-03-03T06:06:29;179.20;2252.80
70151;DHT22;57517;43.562;19.540;2023-03-03T06:08:54;154.50;2252.80
70151;DHT22;57517;43.562;19.540;2023-03-03T06:11:20;179.20;2252.80
70151;DHT22;57517;43.562;19.540;2023-03-03T06:13:46;179.30;2252.80
70151;DHT22;57517;43.562;19.540;2023-03-03T06:16:11;179.40;2252.80
70151;DHT22;57517;43.562;19.540;2023-03-03T06:18:37;179.50;2252.80
70151;DHT22;57517;43.562;19.540;2023-03-03T06:21:03;179.50;2252.80
70151;DHT22;57517;43.562;19.540;2023-03-03T06:23:29;179.70;2252.80
70151;DHT22;57517;43.562;19.540;2023-03-03T06:25:54;179.80;2252.80
70151;DHT22;57517;43.562;19.540;2023-03-03T06:28:20;179.80;2252.80
70151;DHT22;57517;43.562;19.540;2023-03-03T06:30:46;179.90;2252.80
70151;DHT22;57517;43.562;19.540;2023-03-03T06:33:11;179.90;2252.80
70151;DHT22;57517;43.562;19.540;2023-03-03T06:35:37;180.00;2252.80
70151;DHT22;57517;43.562;19.540;2023-03-03T06:38:03;180.00;2252.80
70151;DHT22;57517;43.562;19.540;2023-03-03T06:40:29;180.00;2252.80
70151;DHT22;57517;43.562;19.540;2023-03-03T06:42:54;180.00;2252.80
70151;DHT22;57517;43.562;19.540;2023-03-03T06:45:20;180.00;2252.80
70151;DHT22;57517;43.562;19.540;2023-03-03T06:47:46;179.90;2252.80
70151;DHT22;57517;43.562;19.540;2023-03-03T06:50:12;179.90;2252.80
70151;DHT22;57517;43.562;19.540;2023-03-03T06:52:38;179.80;2252.80
70151;DHT22;57517;43.562;19.540;2023-03-03T06:55:12;179.80;2252.80
70151;DHT22;57517;43.562;19.540;2023-03-03T06:57:38;179.70;2252.80
70151;DHT22;57517;43.562;19.540;2023-03-03T07:00:17;179.80;2252.80
70151;DHT22;57517;43.562;19.540;2023-03-03T07:03:02;179.90;2252.80
70151;DHT22;57517;43.562;19.540;2023-03-03T07:05:30;180.00;2252.80
70151;DHT22;57517;43.562;19.540;2023-03-03T07:07:57;180.00;2252.80
70151;DHT22;57517;43.562;19.540;2023-03-03T07:10:26;204.80;2252.80
70151;DHT22;57517;43.562;19.540;2023-03-03T07:12:52;180.10;2252.80
70151;DHT22;57517;43.562;19.540;2023-03-03T07:15:32;204.90;2252.80
70151;DHT22;57517;43.562;19.540;2023-03-03T07:17:58;180.10;2252.80
70151;DHT22;57517;43.562;19.540;2023-03-03T07:20:31;204.80;2252.80
70151;DHT22;57517;43.562;19.540;2023-03-03T07:22:58;204.90;2252.80
70151;DHT22;57517;43.562;19.540;2023-03-03T07:25:31;205.00;2252.80
70151;DHT22;57517;43.562;19.540;2023-03-03T07:30:36;205.20;2252.80
70151;DHT22;57517;43.562;19.540;2023-03-03T07:33:04;205.50;2252.80
70151;DHT22;57517;43.562;19.540;2023-03-03T07:35:42;205.30;2252.80
70151;DHT22;57517;43.562;19.540;2023-03-03T07:40:54;205.10;2252.80
70151;DHT22;57517;43.562;19.540;2023-03-03T07:43:36;205.20;2252.80
70151;DHT22;57517;43.562;19.540;2023-03-03T07:46:22;205.40;2252.80
70151;DHT22;57517;43.562;19.540;2023-03-03T07:48:48;205.20;2252.80
70151;DHT22;57517;43.562;19.540;2023-03-03T07:54:38;180.10;2252.80
70151;DHT22;57517;43.562;19.540;2023-03-03T07:56:39;180.10;2252.80
70151;DHT22;57517;43.562;19.540;2023-03-03T07:59:37;180.10;2252.80
70151;DHT22;57517;43.562;19.540;2023-03-03T08:02:37;180.00;2252.80
70151;DHT22;57517;43.562;19.540;2023-03-03T08:05:01;179.90;2252.80
70151;DHT22;57517;43.562;19.540;2023-03-03T08:07:41;180.00;2252.80
70151;DHT22;57517;43.562;19.540;2023-03-03T08:10:40;179.90;2252.80
70151;DHT22;57517;43.562;19.540;2023-03-03T08:13:41;179.90;2252.80
70151;DHT22;57517;43.562;19.540;2023-03-03T08:18:45;180.00;2252.80
70151;DHT22;57517;43.562;19.540;2023-03-03T08:21:22;180.10;2252.80
70151;DHT22;57517;43.562;19.540;2023-03-03T08:23:48;204.80;2252.80
70151;DHT22;57517;43.562;19.540;2023-03-03T08:26:19;204.90;2252.80
70151;DHT22;57517;43.562;19.540;2023-03-03T08:28:46;205.00;2252.80
70151;DHT22;57517;43.562;19.540;2023-03-03T08:31:12;205.10;2252.80
70151;DHT22;57517;43.562;19.540;2023-03-03T08:33:38;205.10;2252.80
70151;DHT22;57517;43.562;19.540;2023-03-03T08:36:05;205.10;2252.80
70151;DHT22;57517;43.562;19.540;2023-03-03T08:38:31;205.10;2252.80
70151;DHT22;57517;43.562;19.540;2023-03-03T08:40:57;205.10;2252.80
70151;DHT22;57517;43.562;19.540;2023-03-03T08:43:22;205.40;2252.80
70151;DHT22;57517;43.562;19.540;2023-03-03T08:45:51;205.40;2252.80
70151;DHT22;57517;43.562;19.540;2023-03-03T08:48:18;205.50;2252.80
70151;DHT22;57517;43.562;19.540;2023-03-03T08:50:45;205.60;2252.80
70151;DHT22;57517;43.562;19.540;2023-03-03T08:53:12;230.40;2252.80
70151;DHT22;57517;43.562;19.540;2023-03-03T08:55:38;230.50;2252.80
70151;DHT22;57517;43.562;19.540;2023-03-03T08:58:05;230.70;2252.80
70151;DHT22;57517;43.562;19.540;2023-03-03T09:00:30;230.60;2252.80
70151;DHT22;57517;43.562;19.540;2023-03-03T09:02:56;230.60;2252.80
70151;DHT22;57517;43.562;19.540;2023-03-03T09:05:23;230.60;2252.80
70151;DHT22;57517;43.562;19.540;2023-03-03T09:07:50;230.70;2252.80
70151;DHT22;57517;43.562;19.540;2023-03-03T09:10:21;230.70;2252.80
70151;DHT22;57517;43.562;19.540;2023-03-03T09:12:52;230.70;2252.80
70151;DHT22;57517;43.562;19.540;2023-03-03T09:17:50;230.90;2252.80
70151;DHT22;57517;43.562;19.540;2023-03-03T09:22:48;230.80;2252.80
70151;DHT22;57517;43.562;19.540;2023-03-03T09:25:35;230.80;2252.80
70151;DHT22;57517;43.562;19.540;2023-03-03T09:28:02;230.90;2252.80
70151;DHT22;57517;43.562;19.540;2023-03-03T09:30:32;231.00;2252.80
70151;DHT22;57517;43.562;19.540;2023-03-03T09:32:59;231.10;2252.80
70151;DHT22;57517;43.562;19.540;2023-03-03T09:35:38;231.30;2252.80
70151;DHT22;57517;43.562;19.540;2023-03-03T09:43:56;256.00;2252.80
70151;DHT22;57517;43.562;19.540;2023-03-03T09:53:12;256.20;2252.80
70151;DHT22;57517;43.562;19.540;2023-03-03T09:57:44;256.00;2252.80
70151;DHT22;57517;43.562;19.540;2023-03-03T10:03:10;231.20;2252.80
70151;DHT22;57517;43.562;19.540;2023-03-03T10:05:57;256.00;2252.80
70151;DHT22;57517;43.562;19.540;2023-03-03T10:11:37;256.50;2252.80
70151;DHT22;57517;43.562;19.540;2023-03-03T10:14:34;256.50;2252.80
70151;DHT22;57517;43.562;19.540;2023-03-03T10:17:32;256.70;2252.80
70151;DHT22;57517;43.562;19.540;2023-03-03T10:36:31;256.90;2252.80
70151;DHT22;57517;43.562;19.540;2023-03-03T10:42:09;281.60;2278.40
70151;DHT22;57517;43.562;19.540;2023-03-03T10:45:00;256.90;2252.80
70151;DHT22;57517;43.562;19.540;2023-03-03T10:47:42;281.70;2278.40
70151;DHT22;57517;43.562;19.540;2023-03-03T10:50:33;281.80;2278.40
70151;DHT22;57517;43.562;19.540;2023-03-03T10:53:20;281.80;2278.40
70151;DHT22;57517;43.562;19.540;2023-03-03T11:01:32;282.20;2278.40
70151;DHT22;57517;43.562;19.540;2023-03-03T11:07:07;282.30;2252.80
70151;DHT22;57517;43.562;19.540;2023-03-03T11:12:43;282.40;2150.40
70151;DHT22;57517;43.562;19.540;2023-03-03T11:18:08;282.50;2073.60
70151;DHT22;57517;43.562;19.540;2023-03-03T11:20:48;282.50;1920.00
70151;DHT22;57517;43.562;19.540;2023-03-03T11:24:18;282.10;2124.80
70151;DHT22;57517;43.562;19.540;2023-03-03T11:26:47;282.30;2124.80
70151;DHT22;57517;43.562;19.540;2023-03-03T11:31:47;282.40;2099.20
70151;DHT22;57517;43.562;19.540;2023-03-03T11:36:53;282.30;1996.80
70151;DHT22;57517;43.562;19.540;2023-03-03T11:39:22;282.20;1945.60
70151;DHT22;57517;43.562;19.540;2023-03-03T11:42:14;282.30;1894.40
70151;DHT22;57517;43.562;19.540;2023-03-03T11:45:00;282.20;1894.40
70151;DHT22;57517;43.562;19.540;2023-03-03T11:55:41;282.20;1920.00
70151;DHT22;57517;43.562;19.540;2023-03-03T12:01:22;282.40;1894.40
70151;DHT22;57517;43.562;19.540;2023-03-03T12:04:00;307.20;1894.40
70151;DHT22;57517;43.562;19.540;2023-03-03T12:16:50;307.30;1894.40
70151;DHT22;57517;43.562;19.540;2023-03-03T12:19:33;307.40;1868.80
70151;DHT22;57517;43.562;19.540;2023-03-03T12:25:28;282.50;1971.20
70151;DHT22;57517;43.562;19.540;2023-03-03T12:41:56;307.60;1945.60
70151;DHT22;57517;43.562;19.540;2023-03-03T12:47:26;307.80;1894.40
70151;DHT22;57517;43.562;19.540;2023-03-03T12:50:20;307.80;1894.40
70151;DHT22;57517;43.562;19.540;2023-03-03T12:53:19;307.80;1868.80
70151;DHT22;57517;43.562;19.540;2023-03-03T12:56:03;307.80;1920.00
70151;DHT22;57517;43.562;19.540;2023-03-03T13:09:23;308.00;2073.60
70151;DHT22;57517;43.562;19.540;2023-03-03T13:14:54;308.10;2124.80
70151;DHT22;57517;43.562;19.540;2023-03-03T13:22:51;307.90;1817.60
70151;DHT22;57517;43.562;19.540;2023-03-03T13:25:39;307.70;1868.80
70151;DHT22;57517;43.562;19.540;2023-03-03T13:31:25;307.60;1868.80
70151;DHT22;57517;43.562;19.540;2023-03-03T13:33:54;307.60;1868.80
70151;DHT22;57517;43.562;19.540;2023-03-03T13:36:24;307.30;1894.40
70151;DHT22;57517;43.562;19.540;2023-03-03T13:38:57;307.30;1920.00
70151;DHT22;57517;43.562;19.540;2023-03-03T13:41:53;307.30;1920.00
70151;DHT22;57517;43.562;19.540;2023-03-03T13:47:02;307.30;1945.60
70151;DHT22;57517;43.562;19.540;2023-03-03T13:52:22;307.40;1920.00
70151;DHT22;57517;43.562;19.540;2023-03-03T13:55:16;307.50;1894.40
70151;DHT22;57517;43.562;19.540;2023-03-03T14:01:06;307.20;1920.00
70151;DHT22;57517;43.562;19.540;2023-03-03T14:03:58;307.20;1920.00
70151;DHT22;57517;43.562;19.540;2023-03-03T14:06:27;282.40;1920.00
70151;DHT22;57517;43.562;19.540;2023-03-03T14:11:33;282.40;1920.00
70151;DHT22;57517;43.562;19.540;2023-03-03T14:19:29;307.40;1945.60
70151;DHT22;57517;43.562;19.540;2023-03-03T14:24:30;307.20;1945.60
70151;DHT22;57517;43.562;19.540;2023-03-03T14:26:58;307.60;2304.00
70151;DHT22;57517;43.562;19.540;2023-03-03T14:31:54;307.70;1920.00
70151;DHT22;57517;43.562;19.540;2023-03-03T14:36:56;307.80;2048.00
70151;DHT22;57517;43.562;19.540;2023-03-03T14:39:32;307.90;2022.40
70151;DHT22;57517;43.562;19.540;2023-03-03T14:41:59;308.10;2201.60
70151;DHT22;57517;43.562;19.540;2023-03-03T14:49:36;308.00;1996.80
70151;DHT22;57517;43.562;19.540;2023-03-03T14:54:43;308.10;2150.40
70151;DHT22;57517;43.562;19.540;2023-03-03T14:57:18;308.10;2048.00
70151;DHT22;57517;43.562;19.540;2023-03-03T15:00:00;308.00;1894.40
70151;DHT22;57517;43.562;19.540;2023-03-03T15:05:24;307.90;1894.40
70151;DHT22;57517;43.562;19.540;2023-03-03T15:08:06;307.90;1868.80
70151;DHT22;57517;43.562;19.540;2023-03-03T15:10:39;307.80;1920.00
70151;DHT22;57517;43.562;19.540;2023-03-03T15:18:29;307.90;1945.60
70151;DHT22;57517;43.562;19.540;2023-03-03T15:21:17;307.80;1920.00
70151;DHT22;57517;43.562;19.540;2023-03-03T15:29:21;307.70;2176.00
70151;DHT22;57517;43.562;19.540;2023-03-03T15:39:57;307.30;1920.00
70151;DHT22;57517;43.562;19.540;2023-03-03T15:45:24;282.50;1996.80
70151;DHT22;57517;43.562;19.540;2023-03-03T15:51:23;282.20;2073.60
70151;DHT22;57517;43.562;19.540;2023-03-03T15:54:04;282.20;2048.00
70151;DHT22;57517;43.562;19.540;2023-03-03T15:56:51;282.30;2048.00
70151;DHT22;57517;43.562;19.540;2023-03-03T16:05:15;282.30;2099.20
70151;DHT22;57517;43.562;19.540;2023-03-03T16:08:38;282.40;2150.40
70151;DHT22;57517;43.562;19.540;2023-03-03T16:10:57;282.40;2201.60
70151;DHT22;57517;43.562;19.540;2023-03-03T16:16:56;282.20;2124.80
70151;DHT22;57517;43.562;19.540;2023-03-03T16:19:33;282.20;2176.00
70151;DHT22;57517;43.562;19.540;2023-03-03T16:33:26;281.60;2278.40
70151;DHT22;57517;43.562;19.540;2023-03-03T16:36:12;281.60;2278.40
70151;DHT22;57517;43.562;19.540;2023-03-03T16:41:42;256.80;2252.80
70151;DHT22;57517;43.562;19.540;2023-03-03T16:46:41;256.50;2252.80
70151;DHT22;57517;43.562;19.540;2023-03-03T16:49:32;256.50;2252.80
70151;DHT22;57517;43.562;19.540;2023-03-03T16:52:18;256.40;2252.80
70151;DHT22;57517;43.562;19.540;2023-03-03T16:54:54;256.30;2252.80
70151;DHT22;57517;43.562;19.540;2023-03-03T17:05:48;231.30;2252.80
70151;DHT22;57517;43.562;19.540;2023-03-03T17:11:34;230.90;2252.80
70151;DHT22;57517;43.562;19.540;2023-03-03T17:17:00;231.00;2252.80
70151;DHT22;57517;43.562;19.540;2023-03-03T17:19:33;231.10;2252.80
70151;DHT22;57517;43.562;19.540;2023-03-03T17:22:18;230.90;2252.80
70151;DHT22;57517;43.562;19.540;2023-03-03T17:24:59;230.90;2252.80
70151;DHT22;57517;43.562;19.540;2023-03-03T17:30:26;230.60;2252.80
70151;DHT22;57517;43.562;19.540;2023-03-03T17:35:50;230.50;2252.80
70151;DHT22;57517;43.562;19.540;2023-03-03T17:46:38;230.70;2252.80
70151;DHT22;57517;43.562;19.540;2023-03-03T18:00:38;230.90;2252.80
70151;DHT22;57517;43.562;19.540;2023-03-03T18:03:26;231.10;2252.80
70151;DHT22;57517;43.562;19.540;2023-03-03T18:22:06;230.50;2252.80
70151;DHT22;57517;43.562;19.540;2023-03-03T18:35:36;230.40;2252.80
70151;DHT22;57517;43.562;19.540;2023-03-03T18:41:10;230.40;2252.80
70151;DHT22;57517;43.562;19.540;2023-03-03T19:04:40;230.60;2252.80
70151;DHT22;57517;43.562;19.540;2023-03-03T19:09:59;230.60;2252.80
70151;DHT22;57517;43.562;19.540;2023-03-03T19:20:43;230.70;2252.80
70151;DHT22;57517;43.562;19.540;2023-03-03T19:32:30;230.60;2252.80
70151;DHT22;57517;43.562;19.540;2023-03-03T19:40:26;205.70;2252.80
70151;DHT22;57517;43.562;19.540;2023-03-03T19:56:56;230.70;2252.80
70151;DHT22;57517;43.562;19.540;2023-03-03T20:07:39;230.40;2252.80
70151;DHT22;57517;43.562;19.540;2023-03-03T20:22:03;230.70;2252.80
70151;DHT22;57517;43.562;19.540;2023-03-03T20:24:53;230.60;2252.80
70151;DHT22;57517;43.562;19.540;2023-03-03T20:27:27;230.60;2252.80
70151;DHT22;57517;43.562;19.540;2023-03-03T20:33:22;230.50;2252.80
70151;DHT22;57517;43.562;19.540;2023-03-03T20:40:58;230.40;2252.80
70151;DHT22;57517;43.562;19.540;2023-03-03T20:46:36;230.40;2252.80
70151;DHT22;57517;43.562;19.540;2023-03-03T20:51:45;205.70;2252.80
70151;DHT22;57517;43.562;19.540;2023-03-03T20:54:43;230.40;2252.80
70151;DHT22;57517;43.562;19.540;2023-03-03T20:57:33;230.40;2252.80
70151;DHT22;57517;43.562;19.540;2023-03-03T21:00:18;230.40;2252.80
70151;DHT22;57517;43.562;19.540;2023-03-03T21:06:04;205.70;2252.80
70151;DHT22;57517;43.562;19.540;2023-03-03T21:08:54;230.40;2252.80
70151;DHT22;57517;43.562;19.540;2023-03-03T21:11:23;230.40;2252.80
70151;DHT22;57517;43.562;19.540;2023-03-03T21:13:52;230.50;2252.80
70151;DHT22;57517;43.562;19.540;2023-03-03T21:19:06;205.70;2252.80
70151;DHT22;57517;43.562;19.540;2023-03-03T21:21:41;205.60;2252.80
70151;DHT22;57517;43.562;19.540;2023-03-03T21:24:11;205.50;2252.80
70151;DHT22;57517;43.562;19.540;2023-03-03T21:29:31;205.40;2252.80
70151;DHT22;57517;43.562;19.540;2023-03-03T21:34:27;205.40;2252.80
70151;DHT22;57517;43.562;19.540;2023-03-03T21:36:53;205.30;2252.80
70151;DHT22;57517;43.562;19.540;2023-03-03T21:41:56;205.10;2252.80
70151;DHT22;57517;43.562;19.540;2023-03-03T21:44:49;205.20;2252.80
70151;DHT22;57517;43.562;19.540;2023-03-03T21:47:17;205.50;2252.80
70151;DHT22;57517;43.562;19.540;2023-03-03T21:49:44;205.50;2252.80
70151;DHT22;57517;43.562;19.540;2023-03-03T21:52:11;205.50;2252.80
70151;DHT22;57517;43.562;19.540;2023-03-03T21:54:37;205.50;2252.80
70151;DHT22;57517;43.562;19.540;2023-03-03T21:57:04;205.60;2252.80
70151;DHT22;57517;43.562;19.540;2023-03-03T21:59:29;205.70;2252.80
70151;DHT22;57517;43.562;19.540;2023-03-03T22:01:55;205.60;2252.80
70151;DHT22;57517;43.562;19.540;2023-03-03T22:04:21;205.70;2252.80